createdAt,value
2022-11-29T00:01:25.334Z,8.10
2022-11-29T00:03:52.852Z,8.20
2022-11-29T00:06:27.611Z,8.20
2022-11-29T00:08:55.816Z,8.10
2022-11-29T00:11:43.424Z,8.10
2022-11-29T00:14:12.644Z,8.10
2022-11-29T00:16:42.375Z,8.10
2022-11-29T00:19:10.191Z,8.10
2022-11-29T00:21:37.096Z,8.10
2022-11-29T00:24:04.186Z,8.10
2022-11-29T00:26:31.070Z,8.00
2022-11-29T00:28:58.051Z,8.00
2022-11-29T00:31:30.532Z,8.00
2022-11-29T00:33:58.314Z,8.00
2022-11-29T00:36:25.735Z,7.90
2022-11-29T00:38:52.885Z,7.90
2022-11-29T00:41:19.942Z,7.90
2022-11-29T00:43:46.945Z,7.90
2022-11-29T00:46:13.979Z,7.80
2022-11-29T00:48:40.948Z,7.80
2022-11-29T00:51:07.883Z,7.90
2022-11-29T00:53:35.161Z,7.80
2022-11-29T00:56:02.381Z,7.90
2022-11-29T00:58:29.394Z,7.80
2022-11-29T01:00:56.856Z,7.90
2022-11-29T01:03:23.999Z,7.80
2022-11-29T01:05:51.132Z,7.80
2022-11-29T01:08:18.164Z,7.80
2022-11-29T01:10:45.125Z,7.70
2022-11-29T01:13:12.083Z,7.70
2022-11-29T01:15:38.966Z,7.70
2022-11-29T01:18:05.839Z,7.70
2022-11-29T01:20:32.730Z,7.60
2022-11-29T01:22:59.821Z,7.70
2022-11-29T01:25:27.196Z,7.60
2022-11-29T01:27:54.730Z,7.70
2022-11-29T01:30:21.611Z,7.70
2022-11-29T01:32:48.611Z,7.70
2022-11-29T01:35:15.958Z,7.60
2022-11-29T01:37:42.848Z,7.60
2022-11-29T01:40:09.902Z,7.60
2022-11-29T01:42:36.796Z,7.60
2022-11-29T01:45:08.224Z,7.70
2022-11-29T01:47:36.794Z,7.70
2022-11-29T01:50:03.928Z,7.80
2022-11-29T01:52:32.340Z,7.80
2022-11-29T01:55:02.092Z,7.80
2022-11-29T01:57:29.444Z,7.70
2022-11-29T02:00:01.232Z,7.80
2022-11-29T02:02:36.065Z,7.80
2022-11-29T02:05:03.734Z,7.70
2022-11-29T02:07:30.944Z,7.70
2022-11-29T02:09:57.859Z,7.70
2022-11-29T02:12:50.944Z,7.70
2022-11-29T02:15:54.818Z,7.60
2022-11-29T02:18:32.083Z,7.60
2022-11-29T02:21:17.710Z,7.70
2022-11-29T02:23:47.547Z,7.70
2022-11-29T02:26:30.884Z,7.70
2022-11-29T02:29:27.799Z,7.70
2022-11-29T02:31:57.440Z,7.80
2022-11-29T02:34:47.402Z,7.80
2022-11-29T02:37:41.194Z,7.80
2022-11-29T02:40:32.485Z,7.70
2022-11-29T02:43:20.909Z,7.80
2022-11-29T02:45:56.814Z,7.80
2022-11-29T02:48:33.406Z,7.80
2022-11-29T02:51:18.950Z,7.90
2022-11-29T02:54:10.544Z,7.90
2022-11-29T02:56:46.785Z,7.90
2022-11-29T02:59:39.499Z,7.80
2022-11-29T03:02:20.264Z,7.80
2022-11-29T03:05:11.970Z,7.80
2022-11-29T03:07:47.855Z,7.80
2022-11-29T03:10:48.288Z,7.90
2022-11-29T03:13:25.999Z,7.90
2022-11-29T03:15:56.526Z,7.80
2022-11-29T03:18:35.572Z,7.80
2022-11-29T03:21:20.590Z,7.90
2022-11-29T03:23:51.543Z,7.90
2022-11-29T03:26:24.204Z,7.90
2022-11-29T03:29:07.285Z,7.90
2022-11-29T03:32:11.578Z,7.90
2022-11-29T03:35:07.678Z,7.90
2022-11-29T03:37:42.825Z,7.80
2022-11-29T03:40:21.808Z,7.80
2022-11-29T03:43:04.535Z,7.80
2022-11-29T03:45:43.250Z,7.80
2022-11-29T03:48:36.819Z,7.80
2022-11-29T03:51:26.544Z,7.90
2022-11-29T03:54:14.445Z,8.00
2022-11-29T03:56:41.960Z,8.00
2022-11-29T03:59:15.120Z,8.00
2022-11-29T04:02:15.962Z,8.00
2022-11-29T04:05:20.498Z,8.00
2022-11-29T04:08:10.347Z,8.00
2022-11-29T04:10:58.362Z,7.90
2022-11-29T04:13:43.424Z,7.90
2022-11-29T04:16:23.264Z,7.90
2022-11-29T04:18:53.026Z,8.00
2022-11-29T04:21:45.181Z,8.00
2022-11-29T04:24:39.935Z,7.90
2022-11-29T04:27:31.043Z,7.80
2022-11-29T04:30:12.187Z,7.80
2022-11-29T04:33:10.404Z,7.90
2022-11-29T04:35:55.625Z,7.80
2022-11-29T04:39:05.359Z,7.70
2022-11-29T04:41:54.051Z,7.80
2022-11-29T04:44:40.031Z,7.80
2022-11-29T04:47:14.872Z,7.90
2022-11-29T04:50:07.808Z,7.80
2022-11-29T04:52:39.484Z,7.80
2022-11-29T04:55:53.961Z,7.80
2022-11-29T04:58:37.829Z,7.80
2022-11-29T05:01:32.059Z,7.80
2022-11-29T05:04:21.489Z,7.80
2022-11-29T05:07:25.845Z,7.80
2022-11-29T05:10:04.186Z,7.80
2022-11-29T05:13:04.079Z,7.80
2022-11-29T05:15:52.907Z,7.80
2022-11-29T05:18:57.104Z,7.90
2022-11-29T05:21:35.924Z,7.90
2022-11-29T05:24:25.042Z,7.80
2022-11-29T05:27:07.306Z,7.80
2022-11-29T05:29:58.619Z,7.80
2022-11-29T05:32:44.068Z,7.70
2022-11-29T05:35:34.743Z,7.70
2022-11-29T05:38:19.884Z,7.80
2022-11-29T05:41:11.068Z,7.70
2022-11-29T05:43:53.871Z,7.80
2022-11-29T05:46:54.985Z,7.80
2022-11-29T05:49:39.879Z,7.70
2022-11-29T05:52:36.967Z,7.80
2022-11-29T05:55:15.427Z,7.70
2022-11-29T05:58:03.567Z,7.70
2022-11-29T06:00:52.718Z,7.70
2022-11-29T06:03:43.953Z,7.80
2022-11-29T06:06:22.925Z,7.80
2022-11-29T06:08:57.111Z,7.80
2022-11-29T06:11:33.662Z,7.70
2022-11-29T06:14:05.686Z,7.80
2022-11-29T06:17:05.940Z,7.80
2022-11-29T06:19:42.864Z,7.70
2022-11-29T06:22:25.262Z,7.60
2022-11-29T06:25:17.124Z,7.60
2022-11-29T06:28:05.316Z,7.60
2022-11-29T06:31:09.981Z,7.60
2022-11-29T06:33:43.111Z,7.60
2022-11-29T06:36:31.404Z,7.60
2022-11-29T06:38:58.600Z,7.60
2022-11-29T06:41:25.697Z,7.60
2022-11-29T06:43:52.813Z,7.60
2022-11-29T06:46:57.077Z,7.60
2022-11-29T06:49:35.255Z,7.50
2022-11-29T06:52:21.242Z,7.50
2022-11-29T06:55:06.261Z,7.60
2022-11-29T06:57:57.866Z,7.50
2022-11-29T07:00:27.178Z,7.50
2022-11-29T07:02:57.201Z,7.50
2022-11-29T07:05:34.743Z,7.50
2022-11-29T07:08:07.177Z,7.50
2022-11-29T07:10:36.485Z,7.40
2022-11-29T07:13:03.851Z,7.40
2022-11-29T07:15:36.775Z,7.30
2022-11-29T07:18:26.155Z,7.40
2022-11-29T07:21:01.967Z,7.30
2022-11-29T07:23:42.848Z,7.40
2022-11-29T07:27:05.348Z,7.40
2022-11-29T07:29:45.011Z,7.30
2022-11-29T07:32:27.889Z,7.30
2022-11-29T07:35:39.310Z,7.40
2022-11-29T07:38:15.483Z,7.40
2022-11-29T07:40:57.638Z,7.30
2022-11-29T07:43:50.439Z,7.30
2022-11-29T07:46:17.764Z,7.10
2022-11-29T07:48:44.718Z,7.10
2022-11-29T07:51:11.794Z,7.10
2022-11-29T07:53:42.426Z,7.10
2022-11-29T07:56:09.807Z,7.20
2022-11-29T07:58:36.816Z,7.20
2022-11-29T08:01:04.063Z,7.30
2022-11-29T08:03:31.363Z,7.30
2022-11-29T08:05:58.428Z,7.30
2022-11-29T08:08:25.350Z,7.20
2022-11-29T08:10:54.827Z,7.20
2022-11-29T08:13:21.979Z,7.20
2022-11-29T08:15:49.105Z,7.10
2022-11-29T08:18:16.682Z,7.10
2022-11-29T08:20:44.011Z,7.00
2022-11-29T08:23:13.063Z,7.00
2022-11-29T08:25:40.286Z,7.00
2022-11-29T08:28:07.265Z,7.10
2022-11-29T08:30:34.421Z,7.10
2022-11-29T08:33:01.328Z,7.00
2022-11-29T08:35:28.306Z,7.00
2022-11-29T08:37:55.408Z,6.90
2022-11-29T08:40:22.826Z,6.90
2022-11-29T08:42:49.944Z,6.90
2022-11-29T08:45:16.863Z,7.00
2022-11-29T08:47:43.794Z,7.10
2022-11-29T08:50:15.784Z,7.10
2022-11-29T08:53:06.411Z,7.10
2022-11-29T08:55:35.393Z,7.10
2022-11-29T08:58:05.098Z,7.00
2022-11-29T09:00:32.541Z,7.00
2022-11-29T09:03:19.511Z,7.00
2022-11-29T09:05:46.513Z,7.00
2022-11-29T09:08:13.473Z,7.00
2022-11-29T09:10:40.921Z,7.10
2022-11-29T09:13:09.276Z,7.10
2022-11-29T09:15:40.459Z,7.00
2022-11-29T09:18:07.425Z,7.10
2022-11-29T09:20:34.642Z,7.10
2022-11-29T09:23:01.726Z,7.10
2022-11-29T09:25:31.787Z,7.10
2022-11-29T09:28:01.323Z,7.10
2022-11-29T09:30:31.391Z,7.10
2022-11-29T09:33:05.183Z,7.20
2022-11-29T09:35:33.007Z,7.00
2022-11-29T09:37:59.981Z,7.00
2022-11-29T09:40:54.231Z,7.00
2022-11-29T09:43:35.243Z,7.10
2022-11-29T09:46:20.261Z,7.10
2022-11-29T09:49:03.564Z,7.10
2022-11-29T09:51:38.648Z,7.10
2022-11-29T09:54:18.869Z,7.00
2022-11-29T09:56:47.471Z,7.10
2022-11-29T09:59:36.085Z,7.10
2022-11-29T10:02:09.635Z,7.20
2022-11-29T10:04:40.209Z,7.10
2022-11-29T10:07:14.861Z,7.20
2022-11-29T10:09:48.091Z,7.30
2022-11-29T10:12:35.132Z,7.30
2022-11-29T10:15:16.952Z,7.30
2022-11-29T10:18:00.208Z,7.50
2022-11-29T10:20:39.711Z,7.50
2022-11-29T10:23:13.653Z,7.50
2022-11-29T10:25:48.516Z,7.50
2022-11-29T10:28:26.730Z,7.50
2022-11-29T10:30:55.122Z,7.40
2022-11-29T10:33:30.786Z,7.50
2022-11-29T10:35:59.853Z,7.50
2022-11-29T10:38:31.527Z,7.50
2022-11-29T10:41:07.517Z,7.30
2022-11-29T10:43:34.434Z,7.40
2022-11-29T10:46:02.648Z,7.50
2022-11-29T10:48:33.925Z,7.50
2022-11-29T10:51:04.059Z,7.60
2022-11-29T10:53:35.945Z,7.50
2022-11-29T10:56:14.257Z,7.60
2022-11-29T10:59:05.284Z,7.60
2022-11-29T11:01:33.615Z,7.60
2022-11-29T11:04:01.172Z,7.60
2022-11-29T11:06:44.984Z,7.70
2022-11-29T11:09:28.306Z,7.70
2022-11-29T11:11:59.777Z,7.70
2022-11-29T11:14:37.206Z,7.70
2022-11-29T11:17:27.499Z,7.70
2022-11-29T11:20:19.056Z,7.80
2022-11-29T11:22:57.313Z,7.80
2022-11-29T11:25:39.932Z,7.90
2022-11-29T11:28:23.194Z,7.90
2022-11-29T11:31:05.597Z,8.00
2022-11-29T11:33:35.307Z,8.00
2022-11-29T11:36:14.377Z,8.00
2022-11-29T11:39:02.538Z,8.10
2022-11-29T11:41:49.466Z,8.20
2022-11-29T11:44:58.423Z,8.20
2022-11-29T11:47:24.322Z,8.20
2022-11-29T11:50:00.631Z,8.30
2022-11-29T11:52:38.315Z,8.40
2022-11-29T11:55:26.031Z,8.50
2022-11-29T11:58:12.537Z,8.50
2022-11-29T12:01:07.356Z,8.50
2022-11-29T12:03:39.644Z,8.50
2022-11-29T12:06:06.412Z,8.60
2022-11-29T12:08:33.329Z,8.60
2022-11-29T12:11:07.071Z,8.60
2022-11-29T12:13:36.195Z,8.70
2022-11-29T12:16:12.502Z,8.70
2022-11-29T12:18:42.820Z,8.70
2022-11-29T12:21:17.970Z,8.70
2022-11-29T12:24:13.749Z,8.80
2022-11-29T12:26:57.967Z,8.80
2022-11-29T12:29:27.892Z,8.90
2022-11-29T12:32:03.014Z,9.00
2022-11-29T12:34:54.740Z,9.00
2022-11-29T12:37:37.335Z,9.10
2022-11-29T12:40:07.695Z,9.30
2022-11-29T12:42:51.310Z,9.40
2022-11-29T12:45:35.206Z,9.40
2022-11-29T12:48:05.218Z,9.40
2022-11-29T12:50:47.105Z,9.50
2022-11-29T12:53:44.973Z,9.50
2022-11-29T12:56:18.981Z,9.60
2022-11-29T12:58:48.665Z,9.60
2022-11-29T13:01:43.574Z,9.60
2022-11-29T13:04:17.263Z,9.60
2022-11-29T13:07:11.851Z,9.60
2022-11-29T13:10:03.321Z,9.60
2022-11-29T13:12:42.048Z,9.70
2022-11-29T13:15:16.802Z,9.70
2022-11-29T13:18:17.638Z,9.70
2022-11-29T13:20:59.782Z,9.80
2022-11-29T13:24:09.449Z,9.80
2022-11-29T13:26:38.160Z,9.80
2022-11-29T13:29:05.030Z,9.70
2022-11-29T13:31:32.113Z,9.70
2022-11-29T13:34:01.392Z,9.70
2022-11-29T13:36:37.178Z,9.60
2022-11-29T13:39:34.968Z,9.60
2022-11-29T13:42:19.460Z,9.60
2022-11-29T13:45:03.451Z,9.60
2022-11-29T13:47:30.658Z,9.60
2022-11-29T13:50:04.019Z,9.60
2022-11-29T13:52:39.578Z,9.60
2022-11-29T13:55:29.649Z,9.60
2022-11-29T13:58:19.682Z,9.60
2022-11-29T14:00:46.455Z,9.50
2022-11-29T14:03:30.098Z,9.50
2022-11-29T14:06:16.006Z,9.40
2022-11-29T14:09:17.977Z,9.40
2022-11-29T14:11:50.713Z,9.40
2022-11-29T14:14:20.395Z,9.30
2022-11-29T14:16:51.031Z,9.30
2022-11-29T14:19:33.997Z,9.20
2022-11-29T14:22:06.954Z,9.20
2022-11-29T14:24:36.467Z,9.10
2022-11-29T14:27:06.249Z,9.20
2022-11-29T14:29:48.300Z,9.10
2022-11-29T14:32:25.355Z,9.10
2022-11-29T14:35:00.917Z,9.10
2022-11-29T14:38:02.990Z,9.10
2022-11-29T14:40:34.274Z,9.00
2022-11-29T14:43:01.884Z,9.00
2022-11-29T14:45:33.537Z,9.00
2022-11-29T14:48:01.703Z,9.00
2022-11-29T14:50:34.694Z,9.00
2022-11-29T14:53:01.576Z,9.00
2022-11-29T14:55:32.877Z,9.00
2022-11-29T14:58:06.258Z,9.00
2022-11-29T15:00:38.808Z,9.00
2022-11-29T15:03:37.914Z,9.00
2022-11-29T15:06:04.711Z,8.90
2022-11-29T15:09:16.650Z,8.90
2022-11-29T15:11:56.516Z,8.90
2022-11-29T15:14:40.056Z,8.90
2022-11-29T15:17:18.779Z,8.90
2022-11-29T15:20:19.843Z,8.90
2022-11-29T15:22:54.900Z,8.90
2022-11-29T15:25:28.478Z,8.80
2022-11-29T15:27:58.107Z,8.90
2022-11-29T15:30:35.521Z,8.90
2022-11-29T15:33:07.459Z,8.80
2022-11-29T15:35:35.649Z,8.80
2022-11-29T15:38:03.115Z,8.90
2022-11-29T15:40:35.310Z,8.80
2022-11-29T15:43:25.632Z,8.90
2022-11-29T15:45:56.901Z,8.90
2022-11-29T15:48:28.559Z,8.90
2022-11-29T15:51:17.193Z,8.90
2022-11-29T15:53:49.824Z,8.90
2022-11-29T15:56:40.031Z,8.90
2022-11-29T15:59:31.245Z,8.90
2022-11-29T16:02:00.844Z,8.90
2022-11-29T16:04:27.763Z,8.90
2022-11-29T16:06:54.772Z,8.90
2022-11-29T16:09:33.277Z,8.90
2022-11-29T16:12:00.986Z,8.90
2022-11-29T16:14:30.784Z,8.90
2022-11-29T16:16:58.317Z,9.00
2022-11-29T16:19:28.078Z,9.00
2022-11-29T16:22:18.928Z,8.90
2022-11-29T16:24:52.700Z,8.90
2022-11-29T16:27:21.050Z,9.00
2022-11-29T16:29:48.045Z,9.00
2022-11-29T16:32:27.402Z,8.90
2022-11-29T16:34:54.667Z,9.00
2022-11-29T16:37:26.264Z,9.00
2022-11-29T16:39:57.141Z,9.00
2022-11-29T16:42:28.792Z,9.00
2022-11-29T16:45:30.684Z,8.90
2022-11-29T16:48:01.557Z,8.90
2022-11-29T16:50:30.546Z,8.90
2022-11-29T16:53:21.576Z,8.90
2022-11-29T16:55:48.458Z,8.90
2022-11-29T16:58:15.349Z,8.90
2022-11-29T17:00:42.834Z,8.80
2022-11-29T17:03:09.801Z,8.80
2022-11-29T17:05:41.641Z,8.90
2022-11-29T17:08:11.642Z,8.80
2022-11-29T17:10:38.552Z,8.90
2022-11-29T17:13:09.546Z,8.80
2022-11-29T17:15:36.455Z,8.80
2022-11-29T17:18:03.384Z,8.80
2022-11-29T17:20:32.940Z,8.80
2022-11-29T17:22:59.833Z,8.80
2022-11-29T17:25:26.724Z,8.80
2022-11-29T17:27:57.966Z,8.80
2022-11-29T17:30:24.903Z,8.80
2022-11-29T17:32:51.798Z,8.80
2022-11-29T17:35:18.738Z,8.80
2022-11-29T17:37:45.644Z,8.80
2022-11-29T17:40:15.335Z,8.90
2022-11-29T17:42:42.304Z,8.90
2022-11-29T17:45:09.419Z,8.90
2022-11-29T17:47:36.296Z,8.80
2022-11-29T17:50:03.257Z,8.80
2022-11-29T17:52:30.132Z,8.80
2022-11-29T17:54:57.037Z,8.80
2022-11-29T17:57:24.941Z,8.80
2022-11-29T17:59:51.876Z,8.90
2022-11-29T18:02:18.796Z,8.80
2022-11-29T18:04:45.798Z,8.80
2022-11-29T18:07:14.945Z,8.80
2022-11-29T18:09:42.105Z,8.80
2022-11-29T18:12:09.024Z,8.80
2022-11-29T18:14:38.295Z,8.80
2022-11-29T18:17:05.254Z,8.80
2022-11-29T18:19:32.183Z,8.80
2022-11-29T18:21:59.083Z,8.80
2022-11-29T18:24:25.981Z,8.80
2022-11-29T18:26:52.900Z,8.80
2022-11-29T18:29:20.663Z,8.80
2022-11-29T18:31:47.677Z,8.80
2022-11-29T18:34:14.686Z,8.80
2022-11-29T18:36:44.304Z,8.80
2022-11-29T18:39:14.212Z,8.80
2022-11-29T18:41:42.881Z,8.80
2022-11-29T18:44:11.769Z,8.80
2022-11-29T18:46:39.405Z,8.80
2022-11-29T18:49:07.908Z,8.70
2022-11-29T18:51:35.961Z,8.70
2022-11-29T18:54:03.244Z,8.80
2022-11-29T18:56:31.785Z,8.80
2022-11-29T18:59:04.613Z,8.70
2022-11-29T19:01:34.177Z,8.70
2022-11-29T19:04:01.483Z,8.80
2022-11-29T19:06:37.125Z,8.70
2022-11-29T19:09:06.293Z,8.70
2022-11-29T19:11:33.480Z,8.70
2022-11-29T19:14:03.273Z,8.60
2022-11-29T19:16:31.911Z,8.60
2022-11-29T19:18:59.872Z,8.60
2022-11-29T19:21:28.588Z,8.50
2022-11-29T19:23:57.575Z,8.50
2022-11-29T19:26:26.380Z,8.40
2022-11-29T19:28:53.794Z,8.40
2022-11-29T19:31:24.071Z,8.30
2022-11-29T19:33:52.745Z,8.30
2022-11-29T19:36:23.923Z,8.30
2022-11-29T19:38:53.743Z,8.10
2022-11-29T19:41:31.868Z,8.20
2022-11-29T19:44:01.323Z,8.20
2022-11-29T19:46:33.362Z,8.20
2022-11-29T19:49:01.214Z,8.10
2022-11-29T19:51:29.098Z,8.10
2022-11-29T19:53:57.822Z,8.10
2022-11-29T19:56:27.294Z,8.10
2022-11-29T19:58:55.292Z,8.10
2022-11-29T20:01:25.223Z,8.10
2022-11-29T20:03:55.344Z,8.10
2022-11-29T20:06:22.671Z,8.10
2022-11-29T20:08:49.633Z,8.10
2022-11-29T20:11:21.408Z,8.10
2022-11-29T20:13:53.963Z,8.00
2022-11-29T20:16:22.080Z,8.00
2022-11-29T20:18:51.231Z,8.00
2022-11-29T20:21:38.142Z,7.90
2022-11-29T20:24:06.246Z,8.00
2022-11-29T20:26:35.224Z,7.90
2022-11-29T20:29:02.385Z,7.90
2022-11-29T20:31:29.692Z,7.90
2022-11-29T20:33:57.613Z,7.90
2022-11-29T20:36:49.413Z,8.00
2022-11-29T20:39:37.997Z,8.00
2022-11-29T20:42:43.942Z,8.00
2022-11-29T20:45:12.280Z,7.90
2022-11-29T20:48:01.229Z,8.00
2022-11-29T20:50:30.857Z,8.00
2022-11-29T20:53:09.913Z,8.00
2022-11-29T20:55:42.462Z,7.90
2022-11-29T20:58:13.289Z,8.00
2022-11-29T21:00:40.187Z,7.90
2022-11-29T21:03:07.056Z,7.90
2022-11-29T21:05:33.943Z,8.00
2022-11-29T21:08:01.452Z,7.90
2022-11-29T21:10:28.409Z,8.00
2022-11-29T21:12:56.149Z,7.90
2022-11-29T21:15:26.055Z,7.90
2022-11-29T21:17:53.635Z,7.90
2022-11-29T21:20:27.081Z,7.90
2022-11-29T21:23:07.661Z,7.90
2022-11-29T21:25:49.580Z,7.90
2022-11-29T21:28:18.324Z,7.90
2022-11-29T21:30:48.399Z,7.80
2022-11-29T21:33:15.552Z,7.70
2022-11-29T21:35:43.024Z,7.70
2022-11-29T21:38:12.976Z,7.70
2022-11-29T21:40:39.854Z,7.70
2022-11-29T21:43:06.752Z,7.60
2022-11-29T21:45:33.642Z,7.60
2022-11-29T21:48:03.313Z,7.60
2022-11-29T21:50:30.349Z,7.60
2022-11-29T21:52:57.228Z,7.60
2022-11-29T21:55:31.540Z,7.50
2022-11-29T21:57:59.055Z,7.40
2022-11-29T22:00:26.054Z,7.50
2022-11-29T22:02:53.056Z,7.50
2022-11-29T22:05:19.960Z,7.50
2022-11-29T22:07:46.874Z,7.60
2022-11-29T22:10:13.897Z,7.60
2022-11-29T22:12:49.295Z,7.60
2022-11-29T22:15:24.249Z,7.50
2022-11-29T22:17:51.883Z,7.60
2022-11-29T22:20:18.847Z,7.60
2022-11-29T22:22:47.711Z,7.60
2022-11-29T22:25:18.016Z,7.60
2022-11-29T22:27:44.952Z,7.60
2022-11-29T22:30:12.592Z,7.60
2022-11-29T22:32:39.492Z,7.60
2022-11-29T22:35:06.453Z,7.60
2022-11-29T22:37:33.322Z,7.60
2022-11-29T22:40:00.685Z,7.60
2022-11-29T22:42:27.589Z,7.60
2022-11-29T22:44:58.125Z,7.50
2022-11-29T22:47:25.071Z,7.50
2022-11-29T22:49:51.946Z,7.60
2022-11-29T22:52:18.874Z,7.50
2022-11-29T22:54:46.029Z,7.50
2022-11-29T22:57:13.431Z,7.50
2022-11-29T22:59:40.337Z,7.50
2022-11-29T23:02:07.260Z,7.50
2022-11-29T23:04:34.208Z,7.50
2022-11-29T23:07:01.146Z,7.50
2022-11-29T23:09:28.019Z,7.50
2022-11-29T23:11:56.273Z,7.50
2022-11-29T23:14:24.152Z,7.50
2022-11-29T23:16:51.291Z,7.50
2022-11-29T23:19:18.274Z,7.50
2022-11-29T23:21:46.433Z,7.50
2022-11-29T23:24:16.424Z,7.50
2022-11-29T23:26:45.791Z,7.50
2022-11-29T23:29:18.065Z,7.50
2022-11-29T23:31:45.137Z,7.50
2022-11-29T23:34:14.814Z,7.40
2022-11-29T23:36:41.904Z,7.40
2022-11-29T23:39:08.866Z,7.40
2022-11-29T23:41:36.425Z,7.40
2022-11-29T23:44:04.699Z,7.40
2022-11-29T23:46:31.586Z,7.40
2022-11-29T23:48:58.557Z,7.40
2022-11-29T23:51:25.453Z,7.30
2022-11-29T23:53:53.992Z,7.30
2022-11-29T23:56:21.771Z,7.30
2022-11-29T23:58:48.695Z,7.30
